createdAt,value
2018-12-21T00:00:12.022Z,8.10
2018-12-21T00:01:12.077Z,2.50
2018-12-21T00:02:12.131Z,3.20
2018-12-21T00:03:12.185Z,4.80
2018-12-21T00:04:12.370Z,1.60
2018-12-21T00:05:12.293Z,3.40
2018-12-21T00:06:12.346Z,5.10
2018-12-21T00:07:12.398Z,4.10
2018-12-21T00:08:12.455Z,1.90
2018-12-21T00:09:12.507Z,7.50
2018-12-21T00:10:12.564Z,4.00
2018-12-21T00:11:12.616Z,4.20
2018-12-21T00:12:12.670Z,8.50
2018-12-21T00:13:12.724Z,4.10
2018-12-21T00:14:12.778Z,3.40
2018-12-21T00:15:12.831Z,5.10
2018-12-21T00:16:12.884Z,4.40
2018-12-21T00:17:12.939Z,4.80
2018-12-21T00:18:12.996Z,3.10
2018-12-21T00:19:13.047Z,6.90
2018-12-21T00:20:13.100Z,2.90
2018-12-21T00:21:21.609Z,5.10
2018-12-21T00:22:13.208Z,3.60
2018-12-21T00:23:13.262Z,5.20
2018-12-21T00:24:13.317Z,3.60
2018-12-21T00:25:13.370Z,4.20
2018-12-21T00:26:13.425Z,2.90
2018-12-21T00:27:13.477Z,1.90
2018-12-21T00:28:13.533Z,7.40
2018-12-21T00:29:13.585Z,4.30
2018-12-21T00:30:13.640Z,3.00
2018-12-21T00:31:13.698Z,4.00
2018-12-21T00:32:13.750Z,4.20
2018-12-21T00:33:13.800Z,4.70
2018-12-21T00:34:13.855Z,2.40
2018-12-21T00:35:13.908Z,4.90
2018-12-21T00:36:13.964Z,7.10
2018-12-21T00:37:14.019Z,3.80
2018-12-21T00:38:14.070Z,3.90
2018-12-21T00:39:14.122Z,1.70
2018-12-21T00:40:14.178Z,3.80
2018-12-21T00:41:14.233Z,3.10
2018-12-21T00:42:14.286Z,7.00
2018-12-21T00:43:14.339Z,3.70
2018-12-21T00:44:14.393Z,3.30
2018-12-21T00:45:14.447Z,4.30
2018-12-21T00:46:14.501Z,4.50
2018-12-21T00:47:14.553Z,6.20
2018-12-21T00:48:14.608Z,3.80
2018-12-21T00:49:14.667Z,4.50
2018-12-21T00:50:14.715Z,5.10
2018-12-21T00:51:14.769Z,4.70
2018-12-21T00:52:14.822Z,2.90
2018-12-21T00:53:14.878Z,4.20
2018-12-21T00:54:14.933Z,3.90
2018-12-21T00:55:14.984Z,3.60
2018-12-21T00:56:15.039Z,4.00
2018-12-21T00:57:15.092Z,5.10
2018-12-21T00:58:15.147Z,5.50
2018-12-21T00:59:15.200Z,3.30
2018-12-21T01:00:15.254Z,3.90
2018-12-21T01:01:15.308Z,2.20
2018-12-21T01:02:15.363Z,4.00
2018-12-21T01:03:15.416Z,5.10
2018-12-21T01:04:15.470Z,2.60
2018-12-21T01:05:15.525Z,6.60
2018-12-21T01:06:15.577Z,3.10
2018-12-21T01:07:15.631Z,6.90
2018-12-21T01:08:15.685Z,2.40
2018-12-21T01:09:15.739Z,3.30
2018-12-21T01:10:16.102Z,3.20
2018-12-21T01:11:15.846Z,7.80
2018-12-21T01:12:15.902Z,5.40
2018-12-21T01:13:15.956Z,5.20
2018-12-21T01:14:16.009Z,4.20
2018-12-21T01:15:16.061Z,4.10
2018-12-21T01:16:16.176Z,4.80
2018-12-21T01:17:16.172Z,3.30
2018-12-21T01:18:16.225Z,5.00
2018-12-21T01:19:16.278Z,5.80
2018-12-21T01:20:16.332Z,2.50
2018-12-21T01:21:16.386Z,4.80
2018-12-21T01:22:16.440Z,5.30
2018-12-21T01:23:16.492Z,6.30
2018-12-21T01:24:16.550Z,4.00
2018-12-21T01:25:16.601Z,5.20
2018-12-21T01:26:16.654Z,5.30
2018-12-21T01:27:16.708Z,2.60
2018-12-21T01:28:16.761Z,6.90
2018-12-21T01:29:16.819Z,4.10
2018-12-21T01:30:16.870Z,4.50
2018-12-21T01:31:16.924Z,2.50
2018-12-21T01:32:16.976Z,4.30
2018-12-21T01:33:17.031Z,5.00
2018-12-21T01:34:17.086Z,4.90
2018-12-21T01:35:17.139Z,4.40
2018-12-21T01:36:17.193Z,3.80
2018-12-21T01:37:17.247Z,5.40
2018-12-21T01:38:17.300Z,6.20
2018-12-21T01:39:17.354Z,2.70
2018-12-21T01:40:17.408Z,3.30
2018-12-21T01:41:17.463Z,2.30
2018-12-21T01:42:17.517Z,3.40
2018-12-21T01:43:17.572Z,4.30
2018-12-21T01:44:17.624Z,4.20
2018-12-21T01:45:17.678Z,6.60
2018-12-21T01:46:17.732Z,4.10
2018-12-21T01:47:17.793Z,3.50
2018-12-21T01:48:17.840Z,4.00
2018-12-21T01:49:17.894Z,4.00
2018-12-21T01:50:17.952Z,2.80
2018-12-21T01:51:18.002Z,1.90
2018-12-21T01:52:18.056Z,3.00
2018-12-21T01:53:18.110Z,6.00
2018-12-21T01:54:18.164Z,2.90
2018-12-21T01:55:18.217Z,2.90
2018-12-21T01:56:18.272Z,1.70
2018-12-21T01:57:18.326Z,6.10
2018-12-21T01:58:18.381Z,2.60
2018-12-21T01:59:18.433Z,4.40
2018-12-21T02:00:18.487Z,3.90
2018-12-21T02:01:18.544Z,5.50
2018-12-21T02:02:18.598Z,4.30
2018-12-21T02:03:18.649Z,2.80
2018-12-21T02:04:18.705Z,5.70
2018-12-21T02:05:18.757Z,1.60
2018-12-21T02:06:18.817Z,4.90
2018-12-21T02:07:18.866Z,1.90
2018-12-21T02:08:18.919Z,1.60
2018-12-21T02:09:18.973Z,6.60
2018-12-21T02:10:19.028Z,2.40
2018-12-21T02:11:19.080Z,3.40
2018-12-21T02:12:19.134Z,4.60
2018-12-21T02:13:19.190Z,5.30
2018-12-21T02:14:19.244Z,5.10
2018-12-21T02:15:19.297Z,2.20
2018-12-21T02:16:19.350Z,4.80
2018-12-21T02:17:19.406Z,3.60
2018-12-21T02:18:19.459Z,4.00
2018-12-21T02:19:19.513Z,2.70
2018-12-21T02:20:19.568Z,2.70
2018-12-21T02:21:19.630Z,4.10
2018-12-21T02:22:19.675Z,3.80
2018-12-21T02:23:19.731Z,5.90
2018-12-21T02:24:19.785Z,3.40
2018-12-21T02:25:19.837Z,4.50
2018-12-21T02:26:19.892Z,4.20
2018-12-21T02:27:19.945Z,5.10
2018-12-21T02:28:19.999Z,6.10
2018-12-21T02:29:20.053Z,4.90
2018-12-21T02:30:20.113Z,3.90
2018-12-21T02:31:20.164Z,4.60
2018-12-21T02:32:20.216Z,3.40
2018-12-21T02:33:20.280Z,3.10
2018-12-21T02:34:20.399Z,6.30
2018-12-21T02:35:20.378Z,3.40
2018-12-21T02:36:20.434Z,3.70
2018-12-21T02:37:20.485Z,2.90
2018-12-21T02:38:20.540Z,6.60
2018-12-21T02:39:20.593Z,2.70
2018-12-21T02:40:20.647Z,4.20
2018-12-21T02:41:20.701Z,3.20
2018-12-21T02:42:20.756Z,3.20
2018-12-21T02:43:20.810Z,5.70
2018-12-21T02:44:20.867Z,2.40
2018-12-21T02:45:20.918Z,4.10
2018-12-21T02:46:20.972Z,4.20
2018-12-21T02:47:21.025Z,5.40
2018-12-21T02:48:21.081Z,4.50
2018-12-21T02:49:21.135Z,4.60
2018-12-21T02:50:21.200Z,3.60
2018-12-21T02:51:21.243Z,4.40
2018-12-21T02:52:21.299Z,3.80
2018-12-21T02:53:21.354Z,3.10
2018-12-21T02:54:21.407Z,3.20
2018-12-21T02:55:21.459Z,4.70
2018-12-21T02:56:21.513Z,5.50
2018-12-21T02:57:21.568Z,3.10
2018-12-21T02:58:21.623Z,2.90
2018-12-21T02:59:21.674Z,4.60
2018-12-21T03:00:21.729Z,3.80
2018-12-21T03:01:21.799Z,2.50
2018-12-21T03:02:21.838Z,4.90
2018-12-21T03:03:21.896Z,4.90
2018-12-21T03:04:21.945Z,3.20
2018-12-21T03:05:21.998Z,4.30
2018-12-21T03:06:22.053Z,1.40
2018-12-21T03:07:22.105Z,4.00
2018-12-21T03:08:22.161Z,3.70
2018-12-21T03:09:22.214Z,3.20
2018-12-21T03:10:22.270Z,5.50
2018-12-21T03:11:22.323Z,2.70
2018-12-21T03:12:22.377Z,2.10
2018-12-21T03:13:22.433Z,6.70
2018-12-21T03:14:22.489Z,3.80
2018-12-21T03:15:22.538Z,6.00
2018-12-21T03:16:22.594Z,3.10
2018-12-21T03:17:22.648Z,3.30
2018-12-21T03:18:22.703Z,3.70
2018-12-21T03:19:22.754Z,3.40
2018-12-21T03:20:22.828Z,3.60
2018-12-21T03:21:22.873Z,5.50
2018-12-21T03:22:22.917Z,2.60
2018-12-21T03:23:22.972Z,1.70
2018-12-21T03:24:23.025Z,3.90
2018-12-21T03:25:23.083Z,5.10
2018-12-21T03:26:23.134Z,3.20
2018-12-21T03:27:23.186Z,1.70
2018-12-21T03:28:23.240Z,2.80
2018-12-21T03:29:23.294Z,2.70
2018-12-21T03:30:23.349Z,4.70
2018-12-21T03:31:23.405Z,2.20
2018-12-21T03:32:23.459Z,4.50
2018-12-21T03:33:23.512Z,2.50
2018-12-21T03:34:23.583Z,2.10
2018-12-21T03:35:23.621Z,2.30
2018-12-21T03:36:23.675Z,1.60
2018-12-21T03:37:23.728Z,4.70
2018-12-21T03:38:23.782Z,3.60
2018-12-21T03:39:23.835Z,1.60
2018-12-21T03:40:23.890Z,3.60
2018-12-21T03:41:23.950Z,1.80
2018-12-21T03:42:23.999Z,5.30
2018-12-21T03:43:24.051Z,3.20
2018-12-21T03:44:24.104Z,2.20
2018-12-21T03:45:24.160Z,2.90
2018-12-21T03:46:24.215Z,4.70
2018-12-21T03:47:24.266Z,2.20
2018-12-21T03:48:24.323Z,4.40
2018-12-21T03:49:24.954Z,4.50
2018-12-21T03:50:24.432Z,4.00
2018-12-21T03:51:24.483Z,3.00
2018-12-21T03:52:24.798Z,3.10
2018-12-21T03:53:24.591Z,2.50
2018-12-21T03:54:24.647Z,5.40
2018-12-21T03:55:24.700Z,3.10
2018-12-21T03:56:24.752Z,3.70
2018-12-21T03:57:24.809Z,2.70
2018-12-21T03:58:24.862Z,1.90
2018-12-21T03:59:24.915Z,1.40
2018-12-21T04:00:24.969Z,1.90
2018-12-21T04:01:25.025Z,1.60
2018-12-21T04:02:25.077Z,3.00
2018-12-21T04:03:25.131Z,2.10
2018-12-21T04:04:25.184Z,2.00
2018-12-21T04:05:25.238Z,1.80
2018-12-21T04:06:25.295Z,4.20
2018-12-21T04:07:25.346Z,1.90
2018-12-21T04:08:25.401Z,2.60
2018-12-21T04:09:25.454Z,2.60
2018-12-21T04:10:25.508Z,1.70
2018-12-21T04:11:25.559Z,2.80
2018-12-21T04:12:25.614Z,2.70
2018-12-21T04:13:25.669Z,3.10
2018-12-21T04:14:25.723Z,1.20
2018-12-21T04:15:25.776Z,3.10
2018-12-21T04:16:25.829Z,1.10
2018-12-21T04:17:25.885Z,3.70
2018-12-21T04:18:25.938Z,1.60
2018-12-21T04:19:25.995Z,1.30
2018-12-21T04:20:26.046Z,3.00
2018-12-21T04:21:26.099Z,2.10
2018-12-21T04:22:34.069Z,1.40
2018-12-21T04:23:26.204Z,2.20
2018-12-21T04:24:26.257Z,6.40
2018-12-21T04:25:26.312Z,1.60
2018-12-21T04:26:26.365Z,1.20
2018-12-21T04:27:26.418Z,1.20
2018-12-21T04:28:26.474Z,1.60
2018-12-21T04:29:26.526Z,2.00
2018-12-21T04:30:26.683Z,2.10
2018-12-21T04:31:26.633Z,2.60
2018-12-21T04:32:26.685Z,2.00
2018-12-21T04:33:26.739Z,1.20
2018-12-21T04:34:26.797Z,2.70
2018-12-21T04:35:26.848Z,1.80
2018-12-21T04:36:26.902Z,1.30
2018-12-21T04:37:26.954Z,1.10
2018-12-21T04:38:27.008Z,0.60
2018-12-21T04:39:27.060Z,3.20
2018-12-21T04:40:27.115Z,2.10
2018-12-21T04:41:27.170Z,3.50
2018-12-21T04:42:27.222Z,0.80
2018-12-21T04:43:27.275Z,1.00
2018-12-21T04:44:27.329Z,1.50
2018-12-21T04:45:27.385Z,14.60
2018-12-21T04:46:27.437Z,0.60
2018-12-21T04:47:27.490Z,2.10
2018-12-21T04:48:27.549Z,0.70
2018-12-21T04:49:27.604Z,0.90
2018-12-21T04:50:27.654Z,1.30
2018-12-21T04:51:27.704Z,1.00
2018-12-21T04:52:27.757Z,1.20
2018-12-21T04:53:27.811Z,1.90
2018-12-21T04:54:27.865Z,1.00
2018-12-21T04:55:27.919Z,1.00
2018-12-21T04:56:27.973Z,2.50
2018-12-21T04:57:28.028Z,1.30
2018-12-21T04:58:28.086Z,1.50
2018-12-21T04:59:28.139Z,1.90
2018-12-21T05:00:28.186Z,2.50
2018-12-21T05:01:28.240Z,1.50
2018-12-21T05:02:28.293Z,0.80
2018-12-21T05:03:28.346Z,2.30
2018-12-21T05:04:28.404Z,1.90
2018-12-21T05:05:28.455Z,0.90
2018-12-21T05:06:28.509Z,1.20
2018-12-21T05:07:28.561Z,0.70
2018-12-21T05:08:28.616Z,0.80
2018-12-21T05:09:28.670Z,1.00
2018-12-21T05:10:28.722Z,1.90
2018-12-21T05:11:28.777Z,0.70
2018-12-21T05:12:28.828Z,2.80
2018-12-21T05:13:28.884Z,1.20
2018-12-21T05:14:28.936Z,1.80
2018-12-21T05:15:28.990Z,1.10
2018-12-21T05:16:29.042Z,2.40
2018-12-21T05:17:29.096Z,1.40
2018-12-21T05:18:29.152Z,0.70
2018-12-21T05:19:29.204Z,3.80
2018-12-21T05:20:29.258Z,2.40
2018-12-21T05:21:29.312Z,2.80
2018-12-21T05:22:29.366Z,2.00
2018-12-21T05:23:29.421Z,1.10
2018-12-21T05:24:29.485Z,3.40
2018-12-21T05:25:29.526Z,3.30
2018-12-21T05:26:29.581Z,1.40
2018-12-21T05:27:29.636Z,2.70
2018-12-21T05:28:29.687Z,1.80
2018-12-21T05:29:29.740Z,2.40
2018-12-21T05:30:29.795Z,2.10
2018-12-21T05:31:29.848Z,2.30
2018-12-21T05:32:29.901Z,1.90
2018-12-21T05:33:29.955Z,2.00
2018-12-21T05:34:30.012Z,1.00
2018-12-21T05:35:30.065Z,2.50
2018-12-21T05:36:30.116Z,0.80
2018-12-21T05:37:30.172Z,1.80
2018-12-21T05:38:30.225Z,1.30
2018-12-21T05:39:30.280Z,0.90
2018-12-21T05:40:30.333Z,1.00
2018-12-21T05:41:30.386Z,1.90
2018-12-21T05:42:30.439Z,0.80
2018-12-21T05:43:30.493Z,1.40
2018-12-21T05:44:30.546Z,2.10
2018-12-21T05:45:30.604Z,2.20
2018-12-21T05:46:30.655Z,0.90
2018-12-21T05:47:30.708Z,1.30
2018-12-21T05:48:30.761Z,1.60
2018-12-21T05:49:30.817Z,1.70
2018-12-21T05:50:30.870Z,2.30
2018-12-21T05:51:30.925Z,1.30
2018-12-21T05:52:30.977Z,0.70
2018-12-21T05:53:31.033Z,1.40
2018-12-21T05:54:31.085Z,1.50
2018-12-21T05:55:31.139Z,2.20
2018-12-21T05:56:31.192Z,1.20
2018-12-21T05:57:31.245Z,1.10
2018-12-21T05:58:31.304Z,0.80
2018-12-21T05:59:31.353Z,1.10
2018-12-21T06:00:31.407Z,1.20
2018-12-21T06:01:31.461Z,0.80
2018-12-21T06:02:31.517Z,1.40
2018-12-21T06:03:31.570Z,0.80
2018-12-21T06:04:31.622Z,1.00
2018-12-21T06:05:31.678Z,1.50
2018-12-21T06:06:31.732Z,1.20
2018-12-21T06:07:33.885Z,0.90
2018-12-21T06:08:31.839Z,1.70
2018-12-21T06:09:31.896Z,1.80
2018-12-21T06:10:31.947Z,1.00
2018-12-21T06:11:32.000Z,0.60
2018-12-21T06:12:32.054Z,1.50
2018-12-21T06:13:32.108Z,0.70
2018-12-21T06:14:32.162Z,1.10
2018-12-21T06:15:32.219Z,0.80
2018-12-21T06:16:32.269Z,0.80
2018-12-21T06:17:32.324Z,0.70
2018-12-21T06:18:32.380Z,0.80
2018-12-21T06:19:32.430Z,0.70
2018-12-21T06:20:32.485Z,0.50
2018-12-21T06:21:32.539Z,1.30
2018-12-21T06:22:32.593Z,1.10
2018-12-21T06:23:32.647Z,0.90
2018-12-21T06:24:32.701Z,1.30
2018-12-21T06:25:32.755Z,1.00
2018-12-21T06:26:32.809Z,0.90
2018-12-21T06:27:32.863Z,1.10
2018-12-21T06:28:32.918Z,1.10
2018-12-21T06:29:32.970Z,1.00
2018-12-21T06:30:33.025Z,0.70
2018-12-21T06:31:33.079Z,2.70
2018-12-21T06:32:33.132Z,1.40
2018-12-21T06:33:33.187Z,1.50
2018-12-21T06:34:33.243Z,0.50
2018-12-21T06:35:33.295Z,0.90
2018-12-21T06:36:33.350Z,1.80
2018-12-21T06:37:33.403Z,0.90
2018-12-21T06:38:33.457Z,2.50
2018-12-21T06:39:33.511Z,0.60
2018-12-21T06:40:33.564Z,1.00
2018-12-21T06:41:33.619Z,1.20
2018-12-21T06:42:33.676Z,0.60
2018-12-21T06:43:33.726Z,0.60
2018-12-21T06:44:33.780Z,2.10
2018-12-21T06:45:33.835Z,0.90
2018-12-21T06:46:33.887Z,0.60
2018-12-21T06:47:33.941Z,1.40
2018-12-21T06:48:33.998Z,0.50
2018-12-21T06:49:34.049Z,0.50
2018-12-21T06:50:34.104Z,0.50
2018-12-21T06:51:34.157Z,0.50
2018-12-21T06:52:34.212Z,0.80
2018-12-21T06:53:34.266Z,0.50
2018-12-21T06:54:34.320Z,0.50
2018-12-21T06:55:34.374Z,1.20
2018-12-21T06:56:34.427Z,0.50
2018-12-21T06:57:34.483Z,0.50
2018-12-21T06:58:34.536Z,0.60
2018-12-21T06:59:34.588Z,1.50
2018-12-21T07:00:34.642Z,1.10
2018-12-21T07:01:34.696Z,0.50
2018-12-21T07:02:34.766Z,0.50
2018-12-21T07:03:34.803Z,0.70
2018-12-21T07:04:34.858Z,1.00
2018-12-21T07:05:34.913Z,0.70
2018-12-21T07:06:34.966Z,0.40
2018-12-21T07:07:35.335Z,0.40
2018-12-21T07:08:35.074Z,0.70
2018-12-21T07:09:35.129Z,0.80
2018-12-21T07:10:35.202Z,1.60
2018-12-21T07:11:35.239Z,0.70
2018-12-21T07:12:35.289Z,0.80
2018-12-21T07:13:35.343Z,0.70
2018-12-21T07:14:35.399Z,0.80
2018-12-21T07:15:35.451Z,0.80
2018-12-21T07:16:35.504Z,0.70
2018-12-21T07:17:35.867Z,0.60
2018-12-21T07:18:35.613Z,0.70
2018-12-21T07:19:35.666Z,0.50
2018-12-21T07:20:35.722Z,0.80
2018-12-21T07:21:35.775Z,0.50
2018-12-21T07:22:35.829Z,0.90
2018-12-21T07:23:35.884Z,0.60
2018-12-21T07:24:35.935Z,0.40
2018-12-21T07:25:35.989Z,0.70
2018-12-21T07:26:36.058Z,0.90
2018-12-21T07:27:36.098Z,2.40
2018-12-21T07:28:36.153Z,1.00
2018-12-21T07:29:36.207Z,1.10
2018-12-21T07:30:36.259Z,1.00
2018-12-21T07:31:36.314Z,0.40
2018-12-21T07:32:36.368Z,0.50
2018-12-21T07:33:36.422Z,0.60
2018-12-21T07:34:36.476Z,0.40
2018-12-21T07:35:36.530Z,0.40
2018-12-21T07:36:36.583Z,0.90
2018-12-21T07:37:36.638Z,0.60
2018-12-21T07:38:36.692Z,0.20
2018-12-21T07:39:36.745Z,0.50
2018-12-21T07:40:36.798Z,1.70
2018-12-21T07:41:36.986Z,0.40
2018-12-21T07:42:36.908Z,0.70
2018-12-21T07:43:36.961Z,1.10
2018-12-21T07:44:37.016Z,0.30
2018-12-21T07:45:37.070Z,0.30
2018-12-21T07:46:37.156Z,0.30
2018-12-21T07:47:37.176Z,0.40
2018-12-21T07:48:37.232Z,0.40
2018-12-21T07:49:37.286Z,0.20
2018-12-21T07:50:37.339Z,0.50
2018-12-21T07:51:37.394Z,0.50
2018-12-21T07:52:37.447Z,0.40
2018-12-21T07:53:37.501Z,0.90
2018-12-21T07:54:37.555Z,1.60
2018-12-21T07:55:37.609Z,0.30
2018-12-21T07:56:37.664Z,0.40
2018-12-21T07:57:37.718Z,0.80
2018-12-21T07:58:37.770Z,0.40
2018-12-21T07:59:37.825Z,0.30
2018-12-21T08:00:37.879Z,0.40
2018-12-21T08:01:37.934Z,0.30
2018-12-21T08:02:37.987Z,0.30
2018-12-21T08:03:38.040Z,0.60
2018-12-21T08:04:38.094Z,0.30
2018-12-21T08:05:38.150Z,0.50
2018-12-21T08:06:38.206Z,0.80
2018-12-21T08:07:38.587Z,0.20
2018-12-21T08:08:38.350Z,0.60
2018-12-21T08:09:38.397Z,0.50
2018-12-21T08:10:38.421Z,0.40
2018-12-21T08:11:38.474Z,0.40
2018-12-21T08:12:38.529Z,1.60
2018-12-21T08:13:38.582Z,0.80
2018-12-21T08:14:38.638Z,0.40
2018-12-21T08:15:38.690Z,0.40
2018-12-21T08:16:38.747Z,0.30
2018-12-21T08:17:38.799Z,1.70
2018-12-21T08:18:38.854Z,0.50
2018-12-21T08:19:38.907Z,0.70
2018-12-21T08:20:38.962Z,1.40
2018-12-21T08:21:39.016Z,0.30
2018-12-21T08:22:39.072Z,0.40
2018-12-21T08:23:44.276Z,0.50
2018-12-21T08:24:39.178Z,0.30
2018-12-21T08:25:39.232Z,1.60
2018-12-21T08:26:39.287Z,0.50
2018-12-21T08:27:39.344Z,0.30
2018-12-21T08:28:39.395Z,0.70
2018-12-21T08:29:39.451Z,0.30
2018-12-21T08:30:39.505Z,0.40
2018-12-21T08:31:39.559Z,0.40
2018-12-21T08:32:39.613Z,0.90
2018-12-21T08:33:39.667Z,0.20
2018-12-21T08:34:39.723Z,0.70
2018-12-21T08:35:39.775Z,0.20
2018-12-21T08:36:39.831Z,0.50
2018-12-21T08:37:39.886Z,0.30
2018-12-21T08:38:39.940Z,0.50
2018-12-21T08:39:39.993Z,0.40
2018-12-21T08:40:40.047Z,0.20
2018-12-21T08:41:40.101Z,0.20
2018-12-21T08:42:40.156Z,0.60
2018-12-21T08:43:40.210Z,1.10
2018-12-21T08:44:40.266Z,0.40
2018-12-21T08:45:40.351Z,0.40
2018-12-21T08:46:40.373Z,0.30
2018-12-21T08:47:40.427Z,0.50
2018-12-21T08:48:40.483Z,0.50
2018-12-21T08:49:40.536Z,0.50
2018-12-21T08:50:40.592Z,0.40
2018-12-21T08:51:40.645Z,1.00
2018-12-21T08:52:40.699Z,1.80
2018-12-21T08:53:40.773Z,1.20
2018-12-21T08:54:40.809Z,0.30
2018-12-21T08:55:40.863Z,0.20
2018-12-21T08:56:40.917Z,0.40
2018-12-21T08:57:40.972Z,0.40
2018-12-21T08:58:41.026Z,1.50
2018-12-21T08:59:41.080Z,0.40
2018-12-21T09:00:41.136Z,0.40
2018-12-21T09:01:41.190Z,0.50
2018-12-21T09:02:41.245Z,0.50
2018-12-21T09:03:41.299Z,0.40
2018-12-21T09:04:41.506Z,2.10
2018-12-21T09:05:41.408Z,0.30
2018-12-21T09:06:41.484Z,0.40
2018-12-21T09:07:41.516Z,0.70
2018-12-21T09:08:41.572Z,0.40
2018-12-21T09:09:41.626Z,0.40
2018-12-21T09:10:41.681Z,0.40
2018-12-21T09:11:41.734Z,0.50
2018-12-21T09:12:41.790Z,0.50
2018-12-21T09:13:41.845Z,0.70
2018-12-21T09:14:41.898Z,0.20
2018-12-21T09:15:41.952Z,0.30
2018-12-21T09:16:42.008Z,0.40
2018-12-21T09:17:42.062Z,0.20
2018-12-21T09:18:42.121Z,0.20
2018-12-21T09:19:42.961Z,0.10
2018-12-21T09:20:42.230Z,0.20
2018-12-21T09:21:42.281Z,0.00
2018-12-21T09:22:42.341Z,0.10
2018-12-21T09:23:42.391Z,0.10
2018-12-21T09:24:42.444Z,0.30
2018-12-21T09:25:42.502Z,0.20
2018-12-21T09:26:42.554Z,0.20
2018-12-21T09:27:42.608Z,0.10
2018-12-21T09:28:42.667Z,0.30
2018-12-21T09:29:42.720Z,0.10
2018-12-21T09:30:42.775Z,0.20
2018-12-21T09:31:42.827Z,0.10
2018-12-21T09:32:42.881Z,0.10
2018-12-21T09:33:42.937Z,0.30
2018-12-21T09:34:42.992Z,0.00
2018-12-21T09:35:43.046Z,0.40
2018-12-21T09:36:43.131Z,0.40
2018-12-21T09:37:43.155Z,0.50
2018-12-21T09:38:43.209Z,0.20
2018-12-21T09:39:43.264Z,0.20
2018-12-21T09:40:43.318Z,0.20
2018-12-21T09:41:43.374Z,0.80
2018-12-21T09:42:43.429Z,0.20
2018-12-21T09:43:43.482Z,0.20
2018-12-21T09:44:43.537Z,0.10
2018-12-21T09:45:43.593Z,0.10
2018-12-21T09:46:43.646Z,0.00
2018-12-21T09:47:43.701Z,0.20
2018-12-21T09:48:43.756Z,0.10
2018-12-21T09:49:43.812Z,0.00
2018-12-21T09:50:43.867Z,0.10
2018-12-21T09:51:45.371Z,0.10
2018-12-21T09:52:43.976Z,0.20
2018-12-21T09:53:44.081Z,0.20
2018-12-21T09:54:44.086Z,0.10
2018-12-21T09:55:44.140Z,0.10
2018-12-21T09:56:44.195Z,0.10
2018-12-21T09:57:44.249Z,0.10
2018-12-21T09:58:44.305Z,0.10
2018-12-21T09:59:44.360Z,0.10
2018-12-21T10:00:44.414Z,0.10
2018-12-21T10:01:44.469Z,0.10
2018-12-21T10:02:44.524Z,0.40
2018-12-21T10:03:44.578Z,0.10
2018-12-21T10:04:44.633Z,0.60
2018-12-21T10:05:44.688Z,0.00
2018-12-21T10:06:44.744Z,0.60
2018-12-21T10:07:44.797Z,0.20
2018-12-21T10:08:44.855Z,0.40
2018-12-21T10:09:44.908Z,0.10
2018-12-21T10:10:44.962Z,0.00
2018-12-21T10:11:45.016Z,0.10
2018-12-21T10:12:45.072Z,0.20
2018-12-21T10:13:45.126Z,0.10
2018-12-21T10:14:45.183Z,0.10
2018-12-21T10:15:45.237Z,0.30
2018-12-21T10:16:45.292Z,1.90
2018-12-21T10:17:45.347Z,0.10
2018-12-21T10:18:45.403Z,0.10
2018-12-21T10:19:45.457Z,0.10
2018-12-21T10:20:45.511Z,0.10
2018-12-21T10:21:45.566Z,0.10
2018-12-21T10:22:45.624Z,0.30
2018-12-21T10:23:45.690Z,0.10
2018-12-21T10:24:45.731Z,0.10
2018-12-21T10:25:45.785Z,0.20
2018-12-21T10:26:45.842Z,0.30
2018-12-21T10:27:45.910Z,0.20
2018-12-21T10:28:45.951Z,0.10
2018-12-21T10:29:46.598Z,0.10
2018-12-21T10:30:46.062Z,0.10
2018-12-21T10:31:46.116Z,0.20
2018-12-21T10:32:46.172Z,0.20
2018-12-21T10:33:46.227Z,0.20
2018-12-21T10:34:46.281Z,0.70
2018-12-21T10:35:46.337Z,0.10
2018-12-21T10:36:46.391Z,0.10
2018-12-21T10:37:46.447Z,0.20
2018-12-21T10:38:46.501Z,0.10
2018-12-21T10:39:46.555Z,0.20
2018-12-21T10:40:46.611Z,0.10
2018-12-21T10:41:46.667Z,0.20
2018-12-21T10:42:46.723Z,0.10
2018-12-21T10:43:46.776Z,0.10
2018-12-21T10:44:46.831Z,0.30
2018-12-21T10:45:46.887Z,0.40
2018-12-21T10:46:46.945Z,0.30
2018-12-21T10:47:46.996Z,0.30
2018-12-21T10:48:47.607Z,0.20
2018-12-21T10:49:47.107Z,0.50
2018-12-21T10:50:47.162Z,0.30
2018-12-21T10:51:47.218Z,0.20
2018-12-21T10:52:47.273Z,0.20
2018-12-21T10:53:47.329Z,0.20
2018-12-21T10:54:47.382Z,0.50
2018-12-21T10:55:47.436Z,0.20
2018-12-21T10:56:47.491Z,0.30
2018-12-21T10:57:47.555Z,0.30
2018-12-21T10:58:49.758Z,0.30
2018-12-21T10:59:47.660Z,0.20
2018-12-21T11:00:47.712Z,0.10
2018-12-21T11:01:47.768Z,0.10
2018-12-21T11:02:47.823Z,0.20
2018-12-21T11:03:47.879Z,0.20
2018-12-21T11:04:47.934Z,0.40
2018-12-21T11:05:47.990Z,0.10
2018-12-21T11:06:48.045Z,0.50
2018-12-21T11:07:48.099Z,0.40
2018-12-21T11:08:48.154Z,0.40
2018-12-21T11:09:48.212Z,0.50
2018-12-21T11:10:48.264Z,0.10
2018-12-21T11:11:48.321Z,0.10
2018-12-21T11:12:48.374Z,0.30
2018-12-21T11:13:48.431Z,0.50
2018-12-21T11:14:48.486Z,0.20
2018-12-21T11:15:48.542Z,0.30
2018-12-21T11:16:48.596Z,0.60
2018-12-21T11:17:48.650Z,0.20
2018-12-21T11:18:48.708Z,0.40
2018-12-21T11:19:48.762Z,0.20
2018-12-21T11:20:48.817Z,2.10
2018-12-21T11:21:48.875Z,0.70
2018-12-21T11:22:48.928Z,0.40
2018-12-21T11:23:48.982Z,1.00
2018-12-21T11:24:49.039Z,0.60
2018-12-21T11:25:49.097Z,0.10
2018-12-21T11:26:49.151Z,0.20
2018-12-21T11:27:49.205Z,0.10
2018-12-21T11:28:49.260Z,0.70
2018-12-21T11:29:49.982Z,0.30
2018-12-21T11:30:49.372Z,0.40
2018-12-21T11:31:49.426Z,0.20
2018-12-21T11:32:49.483Z,0.80
2018-12-21T11:33:49.539Z,0.30
2018-12-21T11:34:49.596Z,0.30
2018-12-21T11:35:49.648Z,0.30
2018-12-21T11:36:49.704Z,0.20
2018-12-21T11:37:49.762Z,0.80
2018-12-21T11:38:49.815Z,1.30
2018-12-21T11:39:49.872Z,0.20
2018-12-21T11:40:49.934Z,0.60
2018-12-21T11:41:49.983Z,0.50
2018-12-21T11:42:50.038Z,0.40
2018-12-21T11:43:50.093Z,0.60
2018-12-21T11:44:50.149Z,0.50
2018-12-21T11:45:50.204Z,0.50
2018-12-21T11:46:50.260Z,0.30
2018-12-21T11:47:50.315Z,0.40
2018-12-21T11:48:50.379Z,0.30
2018-12-21T11:49:50.427Z,0.40
2018-12-21T11:50:50.484Z,0.20
2018-12-21T11:51:50.539Z,0.30
2018-12-21T11:52:50.596Z,0.40
2018-12-21T11:53:50.652Z,0.80
2018-12-21T11:54:50.708Z,0.40
2018-12-21T11:55:50.765Z,0.30
2018-12-21T11:56:50.818Z,0.50
2018-12-21T11:57:50.873Z,0.10
2018-12-21T11:58:50.929Z,0.10
2018-12-21T11:59:50.983Z,0.40
2018-12-21T12:00:51.040Z,0.20
2018-12-21T12:01:51.095Z,0.20
2018-12-21T12:02:51.152Z,0.10
2018-12-21T12:03:51.208Z,0.20
2018-12-21T12:04:51.262Z,0.40
2018-12-21T12:05:51.319Z,0.20
2018-12-21T12:06:51.376Z,0.20
2018-12-21T12:07:51.431Z,0.50
2018-12-21T12:08:51.486Z,0.60
2018-12-21T12:09:51.543Z,0.20
2018-12-21T12:10:51.598Z,0.80
2018-12-21T12:11:51.653Z,0.10
2018-12-21T12:12:51.710Z,0.20
2018-12-21T12:13:51.765Z,0.50
2018-12-21T12:14:51.823Z,2.30
2018-12-21T12:15:51.877Z,0.90
2018-12-21T12:16:51.936Z,0.30
2018-12-21T12:17:51.990Z,0.20
2018-12-21T12:18:52.045Z,0.40
2018-12-21T12:19:52.104Z,0.10
2018-12-21T12:20:52.156Z,0.10
2018-12-21T12:21:52.214Z,0.20
2018-12-21T12:22:52.270Z,0.20
2018-12-21T12:23:52.332Z,0.10
2018-12-21T12:25:25.589Z,0.20
2018-12-21T12:25:52.434Z,0.40
2018-12-21T12:26:52.491Z,0.10
2018-12-21T12:27:52.546Z,0.20
2018-12-21T12:28:52.602Z,0.50
2018-12-21T12:29:52.661Z,0.70
2018-12-21T12:30:52.713Z,0.90
2018-12-21T12:31:52.769Z,1.60
2018-12-21T12:32:52.827Z,2.40
2018-12-21T12:33:52.883Z,0.30
2018-12-21T12:34:52.937Z,0.90
2018-12-21T12:35:52.992Z,0.50
2018-12-21T12:36:53.048Z,0.10
2018-12-21T12:37:53.105Z,0.10
2018-12-21T12:38:53.160Z,0.10
2018-12-21T12:39:53.220Z,0.10
2018-12-21T12:40:53.272Z,0.10
2018-12-21T12:41:53.328Z,0.40
2018-12-21T12:42:53.384Z,0.10
2018-12-21T12:43:53.439Z,0.30
2018-12-21T12:44:53.494Z,0.70
2018-12-21T12:45:53.552Z,0.20
2018-12-21T12:46:53.608Z,0.30
2018-12-21T12:47:53.662Z,0.10
2018-12-21T12:48:53.719Z,0.20
2018-12-21T12:49:53.777Z,0.20
2018-12-21T12:50:53.830Z,0.40
2018-12-21T12:51:53.886Z,0.40
2018-12-21T12:52:53.946Z,0.20
2018-12-21T12:53:54.016Z,0.40
2018-12-21T12:55:02.354Z,0.60
2018-12-21T12:55:54.720Z,0.20
2018-12-21T12:56:54.166Z,0.70
2018-12-21T12:57:54.223Z,0.30
2018-12-21T12:58:54.280Z,0.40
2018-12-21T12:59:54.340Z,0.10
2018-12-21T13:00:54.392Z,0.30
2018-12-21T13:01:54.572Z,0.20
2018-12-21T13:02:54.504Z,0.20
2018-12-21T13:03:54.559Z,0.10
2018-12-21T13:04:54.614Z,0.20
2018-12-21T13:05:54.671Z,0.20
2018-12-21T13:06:54.733Z,0.30
2018-12-21T13:07:54.783Z,0.20
2018-12-21T13:08:54.840Z,0.20
2018-12-21T13:09:54.909Z,0.30
2018-12-21T13:10:54.953Z,1.00
2018-12-21T13:11:55.009Z,0.80
2018-12-21T13:12:55.066Z,1.30
2018-12-21T13:13:55.122Z,0.10
2018-12-21T13:14:55.177Z,0.60
2018-12-21T13:15:55.234Z,0.20
2018-12-21T13:16:55.290Z,0.60
2018-12-21T13:17:55.348Z,1.80
2018-12-21T13:18:55.406Z,2.20